createdAt,value
2023-05-09T00:01:46.420Z,102076.53
2023-05-09T00:04:12.796Z,102075.28
2023-05-09T00:06:39.113Z,102074.91
2023-05-09T00:09:05.188Z,102077.91
2023-05-09T00:11:31.605Z,102081.56
2023-05-09T00:13:57.862Z,102076.66
2023-05-09T00:16:24.413Z,102079.34
2023-05-09T00:18:50.521Z,102079.53
2023-05-09T00:21:16.864Z,102080.78
2023-05-09T00:23:42.935Z,102074.75
2023-05-09T00:26:09.755Z,102076.00
2023-05-09T00:28:36.652Z,102072.44
2023-05-09T00:31:04.755Z,102061.75
2023-05-09T00:33:30.840Z,102057.78
2023-05-09T00:35:57.322Z,102059.06
2023-05-09T00:38:23.588Z,102063.47
2023-05-09T00:40:50.062Z,102053.22
2023-05-09T00:43:16.734Z,102058.78
2023-05-09T00:45:44.833Z,102060.72
2023-05-09T00:48:11.193Z,102056.38
2023-05-09T00:50:37.673Z,102052.25
2023-05-09T00:53:04.402Z,102055.81
2023-05-09T00:55:31.589Z,102047.63
2023-05-09T00:57:58.039Z,102051.09
2023-05-09T01:00:24.631Z,102046.28
2023-05-09T01:02:54.248Z,102047.53
2023-05-09T01:05:24.354Z,102043.66
2023-05-09T01:08:06.678Z,102051.09
2023-05-09T01:11:03.279Z,102047.91
2023-05-09T01:14:05.871Z,102045.91
2023-05-09T01:16:49.324Z,102037.09
2023-05-09T01:19:40.280Z,102045.66
2023-05-09T01:22:08.451Z,102040.94
2023-05-09T01:24:59.465Z,102044.03
2023-05-09T01:28:03.505Z,102038.16
2023-05-09T01:30:31.188Z,102035.44
2023-05-09T01:33:01.240Z,102034.66
2023-05-09T01:35:30.777Z,102022.91
2023-05-09T01:37:58.651Z,102032.72
2023-05-09T01:40:30.825Z,102028.97
2023-05-09T01:43:01.225Z,102026.47
2023-05-09T01:45:28.584Z,102039.84
2023-05-09T01:47:57.084Z,102030.06
2023-05-09T01:50:24.439Z,102031.81
2023-05-09T01:52:54.230Z,102029.09
2023-05-09T01:55:24.865Z,102026.41
2023-05-09T01:57:53.235Z,102024.34
2023-05-09T02:00:20.497Z,102025.19
2023-05-09T02:02:47.743Z,102025.94
2023-05-09T02:05:16.977Z,102029.78
2023-05-09T02:07:45.975Z,102034.31
2023-05-09T02:10:14.620Z,102030.44
2023-05-09T02:12:41.247Z,102030.34
2023-05-09T02:15:08.184Z,102016.97
2023-05-09T02:17:39.694Z,102009.22
2023-05-09T02:20:09.107Z,102018.53
2023-05-09T02:22:35.999Z,102017.94
2023-05-09T02:25:04.167Z,102009.19
2023-05-09T02:27:33.211Z,102005.72
2023-05-09T02:30:03.357Z,102009.97
2023-05-09T02:32:33.250Z,102007.38
2023-05-09T02:35:01.155Z,102009.72
2023-05-09T02:37:27.899Z,101999.13
2023-05-09T02:39:54.796Z,102005.06
2023-05-09T02:42:25.806Z,102015.44
2023-05-09T02:44:53.019Z,102005.63
2023-05-09T02:47:19.926Z,102013.22
2023-05-09T02:49:47.165Z,102011.47
2023-05-09T02:52:14.117Z,102005.47
2023-05-09T02:54:40.225Z,102006.63
2023-05-09T02:57:06.650Z,101999.88
2023-05-09T02:59:32.941Z,102011.22
2023-05-09T03:02:01.742Z,102015.25
2023-05-09T03:04:28.834Z,102013.31
2023-05-09T03:06:55.479Z,102006.28
2023-05-09T03:09:21.768Z,102011.56
2023-05-09T03:11:49.405Z,102009.00
2023-05-09T03:14:15.569Z,102003.13
2023-05-09T03:16:42.066Z,102013.44
2023-05-09T03:19:17.940Z,101998.31
2023-05-09T03:21:44.301Z,102000.81
2023-05-09T03:24:10.470Z,102016.09
2023-05-09T03:26:36.864Z,102008.38
2023-05-09T03:29:03.202Z,102006.16
2023-05-09T03:31:29.710Z,102002.00
2023-05-09T03:33:55.905Z,102010.16
2023-05-09T03:36:22.563Z,102002.50
2023-05-09T03:38:49.333Z,101998.66
2023-05-09T03:41:17.897Z,102000.41
2023-05-09T03:43:46.457Z,102002.72
2023-05-09T03:46:12.880Z,102004.44
2023-05-09T03:48:39.481Z,101997.53
2023-05-09T03:51:06.450Z,102006.69
2023-05-09T03:53:36.393Z,102006.41
2023-05-09T03:56:02.845Z,102007.97
2023-05-09T03:58:32.827Z,102010.00
2023-05-09T04:00:59.944Z,102007.34
2023-05-09T04:03:26.221Z,102011.56
2023-05-09T04:05:54.233Z,102004.97
2023-05-09T04:08:27.972Z,102005.22
2023-05-09T04:10:54.331Z,102000.50
2023-05-09T04:13:21.083Z,101997.94
2023-05-09T04:15:47.448Z,102004.47
2023-05-09T04:18:13.834Z,101998.44
2023-05-09T04:20:40.240Z,102004.50
2023-05-09T04:23:06.440Z,102003.88
2023-05-09T04:25:34.771Z,102004.13
2023-05-09T04:28:01.944Z,102005.66
2023-05-09T04:30:28.861Z,101999.59
2023-05-09T04:32:55.717Z,101995.72
2023-05-09T04:35:22.680Z,102001.53
2023-05-09T04:37:51.455Z,101999.38
2023-05-09T04:40:18.358Z,101993.09
2023-05-09T04:43:10.858Z,101994.22
2023-05-09T04:45:37.342Z,101994.53
2023-05-09T04:48:03.780Z,101996.81
2023-05-09T04:50:30.563Z,101992.94
2023-05-09T04:52:56.785Z,101996.81
2023-05-09T04:55:23.586Z,101988.50
2023-05-09T04:57:50.913Z,101988.59
2023-05-09T05:00:18.600Z,101991.72
2023-05-09T05:02:47.160Z,101991.59
2023-05-09T05:05:14.319Z,101983.91
2023-05-09T05:07:42.579Z,101985.91
2023-05-09T05:10:12.744Z,101998.66
2023-05-09T05:12:41.648Z,101989.88
2023-05-09T05:15:11.582Z,101993.84
2023-05-09T05:17:39.083Z,101992.06
2023-05-09T05:20:09.774Z,101999.75
2023-05-09T05:22:40.135Z,101995.59
2023-05-09T05:25:07.374Z,101996.75
2023-05-09T05:27:34.925Z,101992.78
2023-05-09T05:30:01.624Z,101995.78
2023-05-09T05:32:28.210Z,101993.47
2023-05-09T05:34:54.888Z,101990.63
2023-05-09T05:37:21.219Z,101983.78
2023-05-09T05:39:47.959Z,101981.34
2023-05-09T05:42:14.091Z,101983.81
2023-05-09T05:44:40.650Z,101977.59
2023-05-09T05:47:08.150Z,101989.84
2023-05-09T05:49:34.544Z,101979.47
2023-05-09T05:52:00.673Z,101992.25
2023-05-09T05:54:27.517Z,101993.53
2023-05-09T05:56:54.063Z,101989.09
2023-05-09T05:59:20.530Z,101994.84
2023-05-09T06:01:46.849Z,101999.75
2023-05-09T06:04:13.744Z,101995.03
2023-05-09T06:06:41.793Z,101996.53
2023-05-09T06:09:08.169Z,101993.56
2023-05-09T06:11:34.902Z,101986.06
2023-05-09T06:14:03.017Z,101990.78
2023-05-09T06:16:29.356Z,101989.72
2023-05-09T06:18:56.304Z,101986.28
2023-05-09T06:21:22.827Z,101989.72
2023-05-09T06:24:05.912Z,101988.28
2023-05-09T06:26:34.695Z,101989.44
2023-05-09T06:29:01.208Z,101984.75
2023-05-09T06:31:27.347Z,101984.34
2023-05-09T06:33:53.826Z,101985.69
2023-05-09T06:36:19.965Z,101988.19
2023-05-09T06:38:46.383Z,101985.84
2023-05-09T06:41:12.515Z,101985.69
2023-05-09T06:43:39.133Z,101980.31
2023-05-09T06:46:05.255Z,101984.81
2023-05-09T06:48:31.685Z,101980.53
2023-05-09T06:50:57.778Z,101977.56
2023-05-09T06:53:24.206Z,101970.53
2023-05-09T06:55:50.327Z,101970.75
2023-05-09T06:58:16.759Z,101969.84
2023-05-09T07:00:42.890Z,101967.47
2023-05-09T07:03:09.934Z,101965.16
2023-05-09T07:05:36.076Z,101960.31
2023-05-09T07:08:03.333Z,101963.94
2023-05-09T07:10:29.669Z,101956.66
2023-05-09T07:12:56.222Z,101956.09
2023-05-09T07:15:32.813Z,101950.47
2023-05-09T07:18:07.100Z,101957.53
2023-05-09T07:20:33.271Z,101942.13
2023-05-09T07:22:59.809Z,101943.59
2023-05-09T07:25:25.968Z,101953.56
2023-05-09T07:27:52.430Z,101948.78
2023-05-09T07:30:18.584Z,101939.03
2023-05-09T07:32:44.995Z,101940.91
2023-05-09T07:35:11.062Z,101928.69
2023-05-09T07:37:37.474Z,101928.56
2023-05-09T07:40:05.352Z,101931.19
2023-05-09T07:42:32.378Z,101923.97
2023-05-09T07:44:59.593Z,101918.03
2023-05-09T07:47:26.142Z,101920.44
2023-05-09T07:49:52.307Z,101914.00
2023-05-09T07:52:18.643Z,101911.19
2023-05-09T07:54:44.869Z,101913.31
2023-05-09T07:57:11.176Z,101906.78
2023-05-09T07:59:37.302Z,101909.97
2023-05-09T08:02:03.693Z,101903.19
2023-05-09T08:04:29.856Z,101899.34
2023-05-09T08:06:57.004Z,101899.97
2023-05-09T08:09:23.110Z,101894.44
2023-05-09T08:11:49.617Z,101891.88
2023-05-09T08:14:15.809Z,101897.59
2023-05-09T08:16:42.678Z,101903.72
2023-05-09T08:19:09.163Z,101896.03
2023-05-09T08:21:35.755Z,101888.41
2023-05-09T08:24:01.886Z,101892.56
2023-05-09T08:26:28.295Z,101893.50
2023-05-09T08:28:54.614Z,101892.31
2023-05-09T08:31:21.166Z,101880.50
2023-05-09T08:33:47.337Z,101883.81
2023-05-09T08:36:13.866Z,101878.69
2023-05-09T08:38:40.744Z,101880.59
2023-05-09T08:41:07.317Z,101878.03
2023-05-09T08:43:35.493Z,101863.69
2023-05-09T08:46:07.843Z,101865.97
2023-05-09T08:48:37.979Z,101855.47
2023-05-09T08:51:05.412Z,101858.63
2023-05-09T08:53:32.232Z,101854.16
2023-05-09T08:56:00.947Z,101849.13
2023-05-09T08:58:27.644Z,101848.00
2023-05-09T09:00:57.554Z,101846.13
2023-05-09T09:03:26.565Z,101849.28
2023-05-09T09:05:54.132Z,101846.63
2023-05-09T09:08:22.189Z,101846.53
2023-05-09T09:10:48.916Z,101844.28
2023-05-09T09:13:17.334Z,101841.47
2023-05-09T09:15:46.264Z,101837.47
2023-05-09T09:18:19.925Z,101834.47
2023-05-09T09:20:56.050Z,101821.84
2023-05-09T09:23:24.792Z,101829.03
2023-05-09T09:26:01.647Z,101839.25
2023-05-09T09:28:27.967Z,101829.84
2023-05-09T09:30:54.352Z,101824.28
2023-05-09T09:33:21.767Z,101814.56
2023-05-09T09:35:50.381Z,101812.88
2023-05-09T09:38:21.353Z,101798.31
2023-05-09T09:40:50.720Z,101810.25
2023-05-09T09:43:17.144Z,101816.59
2023-05-09T09:45:49.152Z,101806.94
2023-05-09T09:48:15.685Z,101818.66
2023-05-09T09:50:42.162Z,101819.06
2023-05-09T09:53:08.331Z,101807.38
2023-05-09T09:55:35.015Z,101793.53
2023-05-09T09:58:01.147Z,101790.00
2023-05-09T10:00:28.005Z,101785.72
2023-05-09T10:02:58.622Z,101779.44
2023-05-09T10:05:29.513Z,101779.78
2023-05-09T10:08:00.386Z,101775.91
2023-05-09T10:10:28.732Z,101773.53
2023-05-09T10:12:58.008Z,101761.44
2023-05-09T10:15:26.349Z,101756.03
2023-05-09T10:17:55.694Z,101756.78
2023-05-09T10:20:22.782Z,101760.97
2023-05-09T10:22:53.190Z,101754.16
2023-05-09T10:25:21.488Z,101750.13
2023-05-09T10:27:48.614Z,101749.28
2023-05-09T10:30:21.714Z,101743.19
2023-05-09T10:32:51.706Z,101744.59
2023-05-09T10:35:21.107Z,101739.41
2023-05-09T10:37:47.493Z,101745.78
2023-05-09T10:40:14.919Z,101746.84
2023-05-09T10:42:44.312Z,101737.00
2023-05-09T10:45:11.833Z,101734.34
2023-05-09T10:47:41.582Z,101728.59
2023-05-09T10:50:11.740Z,101727.34
2023-05-09T10:53:16.410Z,101726.34
2023-05-09T10:55:46.125Z,101716.22
2023-05-09T10:58:25.563Z,101717.00
2023-05-09T11:00:57.040Z,101718.28
2023-05-09T11:03:25.307Z,101701.06
2023-05-09T11:05:54.623Z,101694.84
2023-05-09T11:08:29.431Z,101700.25
2023-05-09T11:10:59.788Z,101696.84
2023-05-09T11:13:31.705Z,101689.63
2023-05-09T11:16:01.224Z,101679.50
2023-05-09T11:18:32.063Z,101681.38
2023-05-09T11:20:59.184Z,101678.41
2023-05-09T11:23:26.610Z,101680.59
2023-05-09T11:26:03.710Z,101669.13
2023-05-09T11:28:32.845Z,101663.66
2023-05-09T11:31:14.459Z,101658.34
2023-05-09T11:33:44.138Z,101656.34
2023-05-09T11:36:31.589Z,101643.25
2023-05-09T11:39:07.911Z,101648.38
2023-05-09T11:41:46.127Z,101640.59
2023-05-09T11:44:21.259Z,101632.53
2023-05-09T11:46:48.681Z,101633.97
2023-05-09T11:49:15.221Z,101629.88
2023-05-09T11:51:41.930Z,101617.56
2023-05-09T11:54:10.605Z,101613.84
2023-05-09T11:56:40.113Z,101600.31
2023-05-09T11:59:07.751Z,101611.91
2023-05-09T12:04:02.575Z,101601.09
2023-05-09T12:06:29.341Z,101612.06
2023-05-09T12:08:59.192Z,101598.59
2023-05-09T12:11:25.524Z,101600.19
2023-05-09T12:13:52.373Z,101584.38
2023-05-09T12:16:20.626Z,101578.38
2023-05-09T12:18:49.576Z,101570.13
2023-05-09T12:21:17.793Z,101577.16
2023-05-09T12:23:47.468Z,101574.47
2023-05-09T12:26:15.063Z,101576.09
2023-05-09T12:28:42.899Z,101575.91
2023-05-09T12:31:09.805Z,101562.56
2023-05-09T12:33:38.176Z,101565.84
2023-05-09T12:36:11.590Z,101563.41
2023-05-09T12:38:38.593Z,101551.63
2023-05-09T12:41:18.805Z,101550.44
2023-05-09T12:43:57.620Z,101544.69
2023-05-09T12:46:24.442Z,101538.44
2023-05-09T12:48:51.417Z,101531.72
2023-05-09T12:51:21.841Z,101525.75
2023-05-09T12:53:48.617Z,101510.22
2023-05-09T12:56:16.820Z,101531.56
2023-05-09T12:58:54.084Z,101520.47
2023-05-09T13:01:28.147Z,101514.84
2023-05-09T13:04:03.172Z,101506.50
2023-05-09T13:06:30.086Z,101507.00
2023-05-09T13:09:01.879Z,101507.19
2023-05-09T13:11:29.074Z,101497.22
2023-05-09T13:13:55.724Z,101498.81
2023-05-09T13:16:22.156Z,101494.31
2023-05-09T13:18:48.846Z,101479.00
2023-05-09T13:21:14.994Z,101477.94
2023-05-09T13:23:41.520Z,101481.09
2023-05-09T13:26:08.159Z,101479.25
2023-05-09T13:28:34.784Z,101482.00
2023-05-09T13:31:02.175Z,101479.38
2023-05-09T13:33:28.625Z,101478.91
2023-05-09T13:36:07.215Z,101475.59
2023-05-09T13:38:38.051Z,101477.16
2023-05-09T13:41:04.255Z,101461.78
2023-05-09T13:43:30.641Z,101466.28
2023-05-09T13:45:56.896Z,101446.31
2023-05-09T13:48:23.536Z,101461.41
2023-05-09T13:50:50.380Z,101434.84
2023-05-09T13:53:16.898Z,101441.59
2023-05-09T13:55:43.656Z,101437.97
2023-05-09T13:58:10.772Z,101432.25
2023-05-09T14:00:36.950Z,101423.19
2023-05-09T14:03:03.570Z,101430.28
2023-05-09T14:05:32.859Z,101413.84
2023-05-09T14:08:00.832Z,101408.66
2023-05-09T14:10:27.056Z,101398.50
2023-05-09T14:12:54.188Z,101396.03
2023-05-09T14:15:20.479Z,101405.66
2023-05-09T14:17:47.318Z,101394.25
2023-05-09T14:20:15.164Z,101384.81
2023-05-09T14:22:41.985Z,101390.34
2023-05-09T14:25:08.361Z,101382.38
2023-05-09T14:27:37.783Z,101373.88
2023-05-09T14:30:04.761Z,101369.41
2023-05-09T14:32:31.998Z,101361.47
2023-05-09T14:34:58.205Z,101364.25
2023-05-09T14:37:24.824Z,101369.81
2023-05-09T14:39:51.011Z,101363.31
2023-05-09T14:42:18.981Z,101359.47
2023-05-09T14:44:46.530Z,101357.84
2023-05-09T14:47:13.042Z,101348.84
2023-05-09T14:49:39.399Z,101349.31
2023-05-09T14:52:05.848Z,101348.53
2023-05-09T14:54:32.305Z,101354.22
2023-05-09T14:57:01.169Z,101337.81
2023-05-09T14:59:27.455Z,101334.25
2023-05-09T15:01:54.273Z,101329.34
2023-05-09T15:04:20.672Z,101331.53
2023-05-09T15:06:47.245Z,101330.09
2023-05-09T15:09:14.071Z,101329.34
2023-05-09T15:11:47.630Z,101334.19
2023-05-09T15:14:15.672Z,101335.41
2023-05-09T15:16:42.277Z,101328.91
2023-05-09T15:19:08.571Z,101320.91
2023-05-09T15:21:35.310Z,101323.00
2023-05-09T15:24:01.597Z,101320.00
2023-05-09T15:26:28.177Z,101311.47
2023-05-09T15:28:54.293Z,101312.13
2023-05-09T15:31:22.568Z,101307.28
2023-05-09T15:33:48.693Z,101302.47
2023-05-09T15:36:15.064Z,101305.50
2023-05-09T15:38:41.494Z,101299.56
2023-05-09T15:41:08.492Z,101302.78
2023-05-09T15:43:34.589Z,101297.13
2023-05-09T15:46:01.857Z,101285.94
2023-05-09T15:48:27.976Z,101286.69
2023-05-09T15:50:54.467Z,101278.97
2023-05-09T15:53:22.405Z,101282.34
2023-05-09T15:55:49.083Z,101272.59
2023-05-09T15:58:15.724Z,101271.59
2023-05-09T16:00:42.232Z,101273.75
2023-05-09T16:03:08.464Z,101262.88
2023-05-09T16:05:35.016Z,101256.72
2023-05-09T16:08:01.444Z,101255.34
2023-05-09T16:10:27.873Z,101253.72
2023-05-09T16:12:54.020Z,101256.44
2023-05-09T16:15:20.783Z,101249.06
2023-05-09T16:17:46.965Z,101243.00
2023-05-09T16:20:13.814Z,101244.63
2023-05-09T16:22:40.637Z,101249.00
2023-05-09T16:25:07.556Z,101241.53
2023-05-09T16:27:33.844Z,101237.63
2023-05-09T16:30:00.668Z,101236.13
2023-05-09T16:32:27.023Z,101230.16
2023-05-09T16:34:53.787Z,101227.41
2023-05-09T16:37:20.085Z,101217.00
2023-05-09T16:39:46.564Z,101216.72
2023-05-09T16:42:14.108Z,101218.72
2023-05-09T16:44:40.645Z,101214.63
2023-05-09T16:47:06.884Z,101212.94
2023-05-09T16:49:33.761Z,101204.72
2023-05-09T16:51:59.963Z,101206.41
2023-05-09T16:54:26.626Z,101198.47
2023-05-09T16:56:53.357Z,101213.31
2023-05-09T16:59:20.124Z,101202.06
2023-05-09T17:01:47.016Z,101193.25
2023-05-09T17:04:14.077Z,101195.50
2023-05-09T17:06:40.379Z,101191.44
2023-05-09T17:09:07.354Z,101192.28
2023-05-09T17:11:33.555Z,101188.34
2023-05-09T17:14:02.228Z,101183.22
2023-05-09T17:16:28.774Z,101185.38
2023-05-09T17:18:55.640Z,101181.03
2023-05-09T17:21:24.153Z,101179.97
2023-05-09T17:23:53.226Z,101184.59
2023-05-09T17:26:20.572Z,101180.06
2023-05-09T17:28:48.103Z,101183.47
2023-05-09T17:31:14.351Z,101177.03
2023-05-09T17:33:42.717Z,101178.31
2023-05-09T17:36:09.128Z,101180.47
2023-05-09T17:38:35.960Z,101178.44
2023-05-09T17:41:03.474Z,101179.19
2023-05-09T17:43:31.222Z,101175.13
2023-05-09T17:45:58.095Z,101177.91
2023-05-09T17:48:24.962Z,101184.31
2023-05-09T17:50:51.255Z,101181.44
2023-05-09T17:53:18.250Z,101178.38
2023-05-09T17:55:44.637Z,101172.97
2023-05-09T17:58:11.396Z,101188.03
2023-05-09T18:00:37.942Z,101182.13
2023-05-09T18:03:04.591Z,101189.16
2023-05-09T18:05:31.396Z,101176.56
2023-05-09T18:08:00.473Z,101178.66
2023-05-09T18:10:28.017Z,101172.19
2023-05-09T18:12:54.820Z,101178.22
2023-05-09T18:15:21.213Z,101172.63
2023-05-09T18:17:48.753Z,101170.41
2023-05-09T18:20:15.437Z,101162.59
2023-05-09T18:22:42.204Z,101173.00
2023-05-09T18:25:09.347Z,101165.50
2023-05-09T18:27:36.225Z,101174.41
2023-05-09T18:30:06.518Z,101177.16
2023-05-09T18:32:34.804Z,101179.91
2023-05-09T18:35:01.302Z,101174.97
2023-05-09T18:37:28.318Z,101175.31
2023-05-09T18:39:54.666Z,101180.25
2023-05-09T18:42:21.464Z,101178.41
2023-05-09T18:44:47.784Z,101179.59
2023-05-09T18:47:15.104Z,101181.28
2023-05-09T18:49:41.837Z,101184.88
2023-05-09T18:52:10.361Z,101180.44
2023-05-09T18:54:39.182Z,101179.59
2023-05-09T18:57:06.058Z,101170.69
2023-05-09T18:59:32.566Z,101191.34
2023-05-09T19:01:59.280Z,101194.22
2023-05-09T19:04:26.223Z,101189.97
2023-05-09T19:06:53.212Z,101186.38
2023-05-09T19:09:19.709Z,101174.59
2023-05-09T19:11:49.133Z,101180.56
2023-05-09T19:14:15.900Z,101184.13
2023-05-09T19:16:42.590Z,101188.06
2023-05-09T19:19:09.116Z,101180.53
2023-05-09T19:21:36.146Z,101184.44
2023-05-09T19:24:04.129Z,101170.97
2023-05-09T19:26:30.867Z,101181.38
2023-05-09T19:28:57.484Z,101168.59
2023-05-09T19:31:24.878Z,101179.81
2023-05-09T19:33:51.385Z,101177.94
2023-05-09T19:36:18.776Z,101168.41
2023-05-09T19:38:45.609Z,101171.63
2023-05-09T19:41:13.307Z,101166.50
2023-05-09T19:43:39.820Z,101173.31
2023-05-09T19:46:07.086Z,101162.22
2023-05-09T19:48:35.250Z,101164.28
2023-05-09T19:51:07.531Z,101169.03
2023-05-09T19:53:34.114Z,101169.19
2023-05-09T19:56:00.744Z,101171.25
2023-05-09T19:58:27.277Z,101169.69
2023-05-09T20:00:56.167Z,101173.56
2023-05-09T20:03:22.966Z,101166.41
2023-05-09T20:05:50.443Z,101161.28
2023-05-09T20:08:16.951Z,101158.88
2023-05-09T20:10:43.839Z,101160.75
2023-05-09T20:13:10.471Z,101160.75
2023-05-09T20:15:39.242Z,101157.50
2023-05-09T20:18:06.792Z,101151.69
2023-05-09T20:20:33.644Z,101151.69
2023-05-09T20:23:00.142Z,101153.72
2023-05-09T20:25:27.076Z,101153.53
2023-05-09T20:27:53.462Z,101150.97
2023-05-09T20:30:22.296Z,101148.19
2023-05-09T20:32:48.682Z,101152.09
2023-05-09T20:35:15.598Z,101149.38
2023-05-09T20:37:42.425Z,101158.72
2023-05-09T20:40:09.436Z,101149.16
2023-05-09T20:42:35.873Z,101151.91
2023-05-09T20:45:03.130Z,101149.50
2023-05-09T20:47:29.652Z,101153.88
2023-05-09T20:49:58.407Z,101152.69
2023-05-09T20:52:25.420Z,101154.53
2023-05-09T20:54:52.179Z,101146.66
2023-05-09T20:57:18.870Z,101146.34
2023-05-09T20:59:45.658Z,101145.44
2023-05-09T21:02:13.057Z,101142.56
2023-05-09T21:04:40.459Z,101137.44
2023-05-09T21:07:09.277Z,101144.06
2023-05-09T21:09:36.478Z,101146.63
2023-05-09T21:12:04.082Z,101132.63
2023-05-09T21:14:31.432Z,101136.53
2023-05-09T21:16:58.062Z,101136.22
2023-05-09T21:19:24.865Z,101127.28
2023-05-09T21:21:51.141Z,101123.25
2023-05-09T21:24:17.753Z,101128.47
2023-05-09T21:26:44.241Z,101123.72
2023-05-09T21:29:11.229Z,101114.19
2023-05-09T21:31:41.062Z,101108.75
2023-05-09T21:34:09.749Z,101118.63
2023-05-09T21:36:37.723Z,101113.81
2023-05-09T21:39:09.031Z,101115.53
2023-05-09T21:41:41.661Z,101104.75
2023-05-09T21:44:10.476Z,101101.69
2023-05-09T21:46:40.695Z,101113.06
2023-05-09T21:49:10.459Z,101111.84
2023-05-09T21:51:36.634Z,101110.66
2023-05-09T21:54:03.240Z,101118.81
2023-05-09T21:56:29.349Z,101108.09
2023-05-09T21:58:55.706Z,101096.38
2023-05-09T22:01:34.170Z,101101.59
2023-05-09T22:04:01.287Z,101100.41
2023-05-09T22:06:27.572Z,101106.00
2023-05-09T22:08:53.997Z,101100.03
2023-05-09T22:11:20.460Z,101103.91
2023-05-09T22:13:46.899Z,101098.38
2023-05-09T22:16:13.142Z,101098.84
2023-05-09T22:18:39.915Z,101100.56
2023-05-09T22:21:06.292Z,101097.84
2023-05-09T22:23:32.775Z,101100.34
2023-05-09T22:25:58.904Z,101090.31
2023-05-09T22:28:25.257Z,101087.22
2023-05-09T22:30:51.541Z,101085.19
2023-05-09T22:33:17.928Z,101090.09
2023-05-09T22:35:45.230Z,101078.34
2023-05-09T22:38:11.678Z,101079.81
2023-05-09T22:40:37.905Z,101077.56
2023-05-09T22:43:04.774Z,101075.25
2023-05-09T22:45:30.890Z,101081.31
2023-05-09T22:47:57.361Z,101066.16
2023-05-09T22:50:25.138Z,101066.47
2023-05-09T22:52:51.731Z,101073.06
2023-05-09T22:55:18.587Z,101073.84
2023-05-09T22:57:45.128Z,101070.28
2023-05-09T23:00:12.021Z,101065.38
2023-05-09T23:02:38.429Z,101061.28
2023-05-09T23:05:05.561Z,101058.72
2023-05-09T23:07:32.216Z,101055.44
2023-05-09T23:09:58.641Z,101060.34
2023-05-09T23:12:25.028Z,101050.31
2023-05-09T23:14:51.181Z,101052.81
2023-05-09T23:17:17.779Z,101055.53
2023-05-09T23:19:45.191Z,101050.44
2023-05-09T23:22:11.688Z,101058.19
2023-05-09T23:24:37.813Z,101049.03
2023-05-09T23:27:04.357Z,101050.97
2023-05-09T23:29:30.514Z,101049.16
2023-05-09T23:31:56.944Z,101046.06
2023-05-09T23:34:23.078Z,101048.06
2023-05-09T23:36:49.393Z,101052.41
2023-05-09T23:39:15.568Z,101042.69
2023-05-09T23:41:42.405Z,101036.25
2023-05-09T23:44:08.674Z,101039.28
2023-05-09T23:46:35.135Z,101033.44
2023-05-09T23:49:01.275Z,101040.19
2023-05-09T23:51:27.702Z,101034.16
2023-05-09T23:53:53.704Z,101034.28
2023-05-09T23:56:20.592Z,101026.16
2023-05-09T23:58:46.634Z,101027.31
